createdAt,value
2019-02-27T00:01:34.132Z,3.70
2019-02-27T00:04:04.256Z,13.97
2019-02-27T00:06:32.331Z,3.73
2019-02-27T00:09:01.214Z,4.27
2019-02-27T00:11:31.240Z,3.30
2019-02-27T00:13:59.226Z,3.97
2019-02-27T00:16:29.287Z,3.33
2019-02-27T00:18:58.916Z,4.80
2019-02-27T00:21:29.781Z,5.20
2019-02-27T00:24:00.323Z,3.20
2019-02-27T00:26:31.479Z,4.03
2019-02-27T00:28:59.655Z,2.33
2019-02-27T00:31:28.103Z,3.87
2019-02-27T00:33:59.447Z,2.80
2019-02-27T00:36:29.195Z,2.20
2019-02-27T00:38:57.933Z,3.70
2019-02-27T00:41:26.664Z,2.90
2019-02-27T00:43:54.743Z,4.77
2019-02-27T00:46:26.412Z,5.13
2019-02-27T00:48:59.079Z,3.37
2019-02-27T00:51:25.355Z,3.70
2019-02-27T00:53:55.970Z,6.17
2019-02-27T00:56:24.723Z,5.13
2019-02-27T00:58:53.021Z,7.17
2019-02-27T01:01:21.670Z,7.17
2019-02-27T01:03:50.483Z,3.83
2019-02-27T01:06:18.320Z,5.83
2019-02-27T01:08:46.891Z,6.13
2019-02-27T01:11:18.129Z,6.63
2019-02-27T01:13:45.899Z,5.27
2019-02-27T01:16:16.997Z,3.53
2019-02-27T01:18:48.216Z,7.70
2019-02-27T01:21:18.929Z,5.03
2019-02-27T01:23:46.318Z,5.37
2019-02-27T01:26:14.572Z,3.63
2019-02-27T01:28:45.647Z,5.70
2019-02-27T01:31:13.691Z,5.97
2019-02-27T01:33:41.972Z,5.80
2019-02-27T01:36:10.462Z,5.70
2019-02-27T01:38:40.775Z,5.50
2019-02-27T01:41:08.948Z,4.40
2019-02-27T01:43:36.876Z,4.20
2019-02-27T01:46:07.345Z,3.03
2019-02-27T01:48:35.422Z,5.50
2019-02-27T01:51:07.080Z,5.03
2019-02-27T01:53:37.949Z,4.63
2019-02-27T01:56:05.683Z,5.50
2019-02-27T01:58:35.107Z,6.73
2019-02-27T02:01:03.395Z,5.70
2019-02-27T02:03:31.459Z,7.80
2019-02-27T02:06:00.728Z,5.93
2019-02-27T02:08:30.470Z,4.63
2019-02-27T02:11:01.397Z,6.57
2019-02-27T02:13:38.154Z,6.63
2019-02-27T02:16:26.507Z,5.10
2019-02-27T02:19:38.845Z,4.67
2019-02-27T02:22:14.198Z,3.27
2019-02-27T02:25:12.551Z,4.30
2019-02-27T02:28:03.195Z,3.30
2019-02-27T02:31:18.325Z,5.67
2019-02-27T02:34:31.510Z,5.33
2019-02-27T02:37:56.426Z,5.57
2019-02-27T02:41:14.393Z,2.30
2019-02-27T02:44:32.141Z,4.10
2019-02-27T02:47:46.687Z,5.73
2019-02-27T02:50:56.674Z,3.90
2019-02-27T02:54:03.024Z,4.30
2019-02-27T02:56:45.224Z,3.00
2019-02-27T02:59:50.243Z,2.93
2019-02-27T03:02:29.767Z,3.30
2019-02-27T03:05:38.032Z,6.30
2019-02-27T03:08:11.955Z,3.73
2019-02-27T03:11:19.097Z,5.33
2019-02-27T03:14:27.893Z,3.40
2019-02-27T03:17:54.760Z,3.77
2019-02-27T03:20:53.102Z,2.03
2019-02-27T03:23:52.228Z,2.90
2019-02-27T03:26:53.059Z,4.80
2019-02-27T03:29:58.185Z,2.03
2019-02-27T03:32:40.908Z,4.70
2019-02-27T03:35:29.382Z,5.03
2019-02-27T03:38:23.722Z,2.97
2019-02-27T03:41:22.729Z,2.50
2019-02-27T03:44:11.954Z,3.30
2019-02-27T03:47:30.557Z,3.03
2019-02-27T03:50:02.606Z,1.90
2019-02-27T03:53:17.567Z,3.87
2019-02-27T03:56:32.154Z,3.60
2019-02-27T03:59:29.187Z,2.97
2019-02-27T04:02:47.461Z,3.00
2019-02-27T04:06:05.850Z,4.80
2019-02-27T04:08:59.504Z,4.00
2019-02-27T04:11:27.806Z,3.03
2019-02-27T04:14:03.069Z,2.77
2019-02-27T04:16:30.501Z,3.30
2019-02-27T04:19:03.051Z,4.30
2019-02-27T04:21:31.482Z,5.10
2019-02-27T04:23:59.829Z,4.70
2019-02-27T04:26:27.234Z,3.83
2019-02-27T04:28:55.498Z,6.53
2019-02-27T04:31:23.845Z,10.23
2019-02-27T04:33:52.401Z,4.57
2019-02-27T04:36:20.149Z,5.27
2019-02-27T04:38:48.009Z,2.20
2019-02-27T04:41:18.182Z,5.00
2019-02-27T04:43:46.808Z,3.97
2019-02-27T04:46:15.723Z,4.20
2019-02-27T04:48:46.032Z,3.03
2019-02-27T04:51:17.237Z,4.53
2019-02-27T04:53:46.709Z,3.97
2019-02-27T04:56:15.557Z,2.73
2019-02-27T04:58:46.088Z,4.40
2019-02-27T05:01:13.833Z,5.07
2019-02-27T05:03:42.749Z,3.30
2019-02-27T05:06:14.573Z,3.60
2019-02-27T05:08:42.550Z,5.07
2019-02-27T05:11:13.970Z,4.57
2019-02-27T05:13:40.583Z,5.03
2019-02-27T05:16:13.943Z,3.00
2019-02-27T05:18:40.183Z,4.63
2019-02-27T05:21:10.561Z,3.67
2019-02-27T05:23:38.377Z,3.90
2019-02-27T05:26:06.969Z,6.43
2019-02-27T05:28:36.586Z,6.00
2019-02-27T05:31:04.756Z,5.23
2019-02-27T05:33:36.475Z,8.60
2019-02-27T05:36:05.445Z,5.60
2019-02-27T05:38:34.501Z,5.97
2019-02-27T05:41:02.938Z,4.70
2019-02-27T05:43:32.704Z,8.93
2019-02-27T05:46:02.693Z,6.77
2019-02-27T05:48:33.909Z,6.80
2019-02-27T05:51:02.148Z,7.57
2019-02-27T05:53:30.767Z,10.73
2019-02-27T05:55:59.563Z,9.67
2019-02-27T05:58:27.598Z,8.03
2019-02-27T06:00:55.237Z,10.20
2019-02-27T06:03:23.571Z,6.30
2019-02-27T06:05:52.154Z,6.43
2019-02-27T06:08:20.296Z,4.90
2019-02-27T06:10:55.125Z,6.13
2019-02-27T06:13:22.903Z,10.47
2019-02-27T06:15:50.928Z,9.37
2019-02-27T06:18:22.531Z,14.37
2019-02-27T06:20:52.129Z,8.60
2019-02-27T06:23:20.387Z,9.77
2019-02-27T06:25:49.726Z,9.03
2019-02-27T06:28:19.308Z,8.30
2019-02-27T06:30:49.378Z,12.70
2019-02-27T06:33:17.924Z,14.13
2019-02-27T06:35:49.484Z,14.43
2019-02-27T06:38:18.371Z,8.40
2019-02-27T06:40:46.411Z,15.23
2019-02-27T06:43:16.111Z,8.10
2019-02-27T06:45:46.362Z,14.80
2019-02-27T06:48:15.440Z,8.67
2019-02-27T06:50:43.723Z,10.90
2019-02-27T06:53:15.528Z,9.53
2019-02-27T06:55:42.320Z,9.80
2019-02-27T06:58:14.799Z,11.00
2019-02-27T07:00:43.572Z,14.17
2019-02-27T07:03:11.870Z,8.40
2019-02-27T07:05:40.299Z,12.03
2019-02-27T07:08:08.737Z,11.43
2019-02-27T07:10:36.704Z,6.13
2019-02-27T07:13:04.355Z,6.80
2019-02-27T07:15:34.195Z,9.63
2019-02-27T07:18:03.491Z,11.10
2019-02-27T07:20:32.086Z,7.27
2019-02-27T07:23:00.278Z,14.83
2019-02-27T07:25:28.408Z,8.07
2019-02-27T07:27:58.350Z,5.73
2019-02-27T07:30:27.723Z,7.60
2019-02-27T07:32:55.844Z,12.20
2019-02-27T07:35:30.895Z,9.10
2019-02-27T07:37:59.448Z,18.77
2019-02-27T07:40:28.064Z,12.90
2019-02-27T07:42:56.446Z,9.87
2019-02-27T07:45:25.352Z,11.30
2019-02-27T07:47:55.068Z,8.33
2019-02-27T07:50:23.469Z,12.07
2019-02-27T07:52:52.222Z,8.70
2019-02-27T07:55:35.388Z,11.97
2019-02-27T07:58:03.115Z,8.20
2019-02-27T08:00:31.134Z,10.37
2019-02-27T08:03:09.826Z,8.00
2019-02-27T08:05:39.974Z,9.50
2019-02-27T08:08:07.646Z,12.90
2019-02-27T08:10:36.992Z,7.90
2019-02-27T08:13:06.924Z,10.37
2019-02-27T08:15:36.645Z,11.60
2019-02-27T08:18:06.657Z,9.23
2019-02-27T08:20:35.261Z,12.23
2019-02-27T08:23:03.220Z,7.50
2019-02-27T08:25:31.604Z,11.10
2019-02-27T08:28:00.697Z,8.57
2019-02-27T08:30:49.688Z,7.73
2019-02-27T08:33:23.986Z,8.93
2019-02-27T08:35:52.521Z,10.40
2019-02-27T08:38:23.440Z,8.50
2019-02-27T08:40:57.562Z,16.40
2019-02-27T08:43:24.160Z,6.50
2019-02-27T08:45:53.380Z,8.50
2019-02-27T08:48:21.480Z,10.53
2019-02-27T08:50:53.470Z,16.63
2019-02-27T08:53:25.857Z,11.90
2019-02-27T08:55:51.818Z,8.43
2019-02-27T08:58:20.635Z,10.30
2019-02-27T09:00:48.771Z,11.17
2019-02-27T09:03:20.267Z,8.70
2019-02-27T09:05:48.182Z,9.80
2019-02-27T09:08:18.917Z,16.87
2019-02-27T09:10:47.799Z,14.83
2019-02-27T09:13:16.483Z,10.73
2019-02-27T09:15:44.468Z,10.13
2019-02-27T09:18:13.047Z,11.70
2019-02-27T09:20:40.711Z,18.63
2019-02-27T09:23:08.779Z,16.17
2019-02-27T09:25:37.339Z,12.70
2019-02-27T09:28:08.991Z,12.07
2019-02-27T09:30:36.490Z,18.70
2019-02-27T09:33:04.575Z,12.37
2019-02-27T09:35:38.322Z,14.73
2019-02-27T09:38:03.466Z,11.47
2019-02-27T09:40:32.840Z,14.47
2019-02-27T09:43:00.815Z,16.90
2019-02-27T09:45:34.899Z,11.60
2019-02-27T09:48:04.039Z,13.97
2019-02-27T09:50:36.256Z,20.07
2019-02-27T09:53:05.020Z,12.40
2019-02-27T09:55:33.206Z,11.70
2019-02-27T09:58:01.079Z,14.00
2019-02-27T10:00:52.339Z,12.93
2019-02-27T10:03:21.421Z,14.10
2019-02-27T10:05:49.935Z,13.90
2019-02-27T10:08:19.811Z,15.60
2019-02-27T10:10:48.646Z,15.13
2019-02-27T10:13:16.432Z,12.47
2019-02-27T10:15:44.880Z,13.10
2019-02-27T10:18:13.019Z,11.97
2019-02-27T10:20:41.047Z,13.00
2019-02-27T10:23:09.504Z,11.83
2019-02-27T10:25:37.713Z,14.93
2019-02-27T10:28:06.485Z,16.07
2019-02-27T10:30:34.958Z,14.27
2019-02-27T10:33:03.565Z,11.80
2019-02-27T10:35:34.969Z,12.27
2019-02-27T10:38:02.458Z,11.90
2019-02-27T10:40:30.413Z,10.57
2019-02-27T10:42:59.009Z,18.67
2019-02-27T10:45:26.715Z,13.97
2019-02-27T10:47:55.530Z,16.07
2019-02-27T10:50:24.397Z,12.10
2019-02-27T10:52:52.060Z,13.80
2019-02-27T10:55:20.182Z,14.20
2019-02-27T10:57:48.154Z,12.67
2019-02-27T11:00:24.898Z,14.87
2019-02-27T11:02:52.580Z,12.50
2019-02-27T11:05:20.991Z,13.00
2019-02-27T11:07:50.112Z,12.40
2019-02-27T11:10:19.541Z,15.20
2019-02-27T11:12:47.868Z,17.67
2019-02-27T11:15:17.312Z,12.90
2019-02-27T11:17:45.851Z,12.33
2019-02-27T11:20:20.416Z,14.23
2019-02-27T11:22:45.428Z,16.10
2019-02-27T11:25:15.358Z,15.53
2019-02-27T11:27:43.784Z,15.60
2019-02-27T11:30:24.766Z,14.83
2019-02-27T11:32:57.780Z,13.17
2019-02-27T11:35:26.022Z,12.10
2019-02-27T11:37:54.462Z,14.20
2019-02-27T11:40:23.184Z,13.93
2019-02-27T11:42:51.101Z,14.63
2019-02-27T11:45:23.728Z,16.47
2019-02-27T11:47:49.310Z,16.50
2019-02-27T11:50:17.911Z,13.63
2019-02-27T11:52:49.055Z,13.60
2019-02-27T11:55:16.726Z,22.80
2019-02-27T11:57:44.857Z,17.40
2019-02-27T12:00:18.007Z,18.60
2019-02-27T12:02:46.783Z,17.83
2019-02-27T12:05:15.335Z,21.97
2019-02-27T12:07:43.034Z,16.63
2019-02-27T12:10:13.517Z,16.60
2019-02-27T12:12:41.220Z,16.53
2019-02-27T12:15:10.142Z,20.20
2019-02-27T12:17:38.687Z,26.40
2019-02-27T12:20:07.490Z,22.70
2019-02-27T12:22:35.987Z,22.43
2019-02-27T12:25:05.022Z,27.20
2019-02-27T12:27:48.356Z,47.20
2019-02-27T12:30:04.673Z,19.53
2019-02-27T12:32:32.644Z,18.63
2019-02-27T12:35:03.131Z,21.00
2019-02-27T12:43:17.409Z,18.50
2019-02-27T12:45:42.786Z,16.57
2019-02-27T12:48:12.577Z,19.50
2019-02-27T12:50:41.704Z,21.40
2019-02-27T12:53:09.481Z,18.30
2019-02-27T12:55:37.693Z,22.13
2019-02-27T12:58:06.353Z,15.73
2019-02-27T13:00:35.508Z,19.37
2019-02-27T13:03:08.387Z,17.23
2019-02-27T13:05:33.603Z,17.20
2019-02-27T13:08:02.892Z,22.10
2019-02-27T13:10:34.159Z,19.10
2019-02-27T13:13:00.625Z,16.90
2019-02-27T13:15:28.926Z,17.57
2019-02-27T13:17:57.963Z,20.77
2019-02-27T13:20:26.231Z,20.37
2019-02-27T13:22:53.942Z,18.80
2019-02-27T13:25:24.102Z,20.17
2019-02-27T13:27:51.941Z,19.90
2019-02-27T13:30:19.927Z,21.07
2019-02-27T13:32:48.558Z,15.60
2019-02-27T13:35:20.075Z,16.63
2019-02-27T13:37:48.371Z,15.90
2019-02-27T13:40:17.919Z,20.03
2019-02-27T13:42:46.906Z,18.77
2019-02-27T13:45:17.129Z,19.70
2019-02-27T13:47:45.212Z,15.47
2019-02-27T13:50:16.730Z,19.87
2019-02-27T13:52:49.903Z,20.50
2019-02-27T13:55:17.451Z,20.13
2019-02-27T13:57:45.164Z,19.07
2019-02-27T14:00:20.355Z,17.33
2019-02-27T14:02:48.565Z,20.30
2019-02-27T14:05:17.463Z,17.77
2019-02-27T14:07:46.375Z,21.37
2019-02-27T14:10:17.114Z,26.43
2019-02-27T14:12:44.659Z,25.07
2019-02-27T14:15:13.523Z,18.40
2019-02-27T14:17:42.482Z,17.50
2019-02-27T14:20:13.089Z,20.53
2019-02-27T14:22:41.763Z,18.83
2019-02-27T14:25:12.029Z,19.10
2019-02-27T14:27:47.234Z,17.47
2019-02-27T14:30:18.230Z,18.97
2019-02-27T14:32:47.348Z,16.40
2019-02-27T14:35:15.740Z,19.80
2019-02-27T14:37:49.543Z,20.17
2019-02-27T14:40:17.767Z,18.23
2019-02-27T14:42:46.038Z,20.80
2019-02-27T14:45:15.192Z,16.90
2019-02-27T14:47:43.665Z,18.47
2019-02-27T14:50:13.854Z,18.20
2019-02-27T14:52:45.151Z,15.53
2019-02-27T14:55:12.885Z,21.17
2019-02-27T14:57:41.285Z,16.47
2019-02-27T15:00:24.554Z,15.60
2019-02-27T15:02:55.617Z,18.47
2019-02-27T15:05:23.263Z,18.17
2019-02-27T15:07:53.643Z,18.03
2019-02-27T15:10:23.982Z,15.17
2019-02-27T15:12:54.968Z,14.97
2019-02-27T15:15:24.311Z,15.47
2019-02-27T15:17:52.014Z,21.63
2019-02-27T15:20:20.764Z,23.30
2019-02-27T15:22:48.726Z,15.87
2019-02-27T15:25:16.859Z,21.83
2019-02-27T15:27:45.686Z,22.80
2019-02-27T15:30:16.352Z,17.90
2019-02-27T15:32:44.523Z,22.53
2019-02-27T15:35:15.590Z,18.83
2019-02-27T15:37:43.961Z,17.53
2019-02-27T15:40:14.008Z,19.13
2019-02-27T15:42:42.703Z,18.37
2019-02-27T15:45:11.545Z,19.93
2019-02-27T15:47:40.879Z,27.60
2019-02-27T15:50:09.872Z,18.60
2019-02-27T15:52:40.689Z,17.73
2019-02-27T15:55:08.647Z,18.50
2019-02-27T15:57:36.509Z,14.40
2019-02-27T16:00:05.503Z,22.30
2019-02-27T16:02:34.124Z,15.00
2019-02-27T16:05:06.135Z,21.37
2019-02-27T16:07:35.770Z,20.50
2019-02-27T16:10:08.006Z,23.60
2019-02-27T16:12:35.486Z,19.97
2019-02-27T16:15:04.068Z,15.17
2019-02-27T16:17:32.279Z,17.93
2019-02-27T16:20:00.740Z,17.73
2019-02-27T16:22:31.391Z,18.97
2019-02-27T16:24:59.531Z,19.50
2019-02-27T16:27:27.228Z,20.20
2019-02-27T16:29:58.185Z,17.63
2019-02-27T16:32:33.121Z,16.87
2019-02-27T16:35:04.298Z,20.07
2019-02-27T16:37:34.617Z,21.33
2019-02-27T16:40:03.133Z,21.10
2019-02-27T16:42:31.685Z,16.43
2019-02-27T16:45:01.888Z,24.23
2019-02-27T16:47:30.403Z,18.33
2019-02-27T16:49:59.086Z,20.73
2019-02-27T16:52:27.264Z,17.60
2019-02-27T16:55:00.743Z,23.00
2019-02-27T16:57:27.140Z,20.03
2019-02-27T16:59:58.936Z,25.60
2019-02-27T17:02:27.750Z,18.97
2019-02-27T17:04:56.172Z,26.27
2019-02-27T17:07:26.047Z,27.10
2019-02-27T17:09:56.337Z,20.10
2019-02-27T17:12:25.262Z,19.67
2019-02-27T17:14:55.428Z,17.33
2019-02-27T17:17:27.115Z,25.30
2019-02-27T17:19:56.185Z,21.87
2019-02-27T17:22:24.857Z,21.93
2019-02-27T17:24:56.225Z,20.27
2019-02-27T17:27:25.797Z,19.43
2019-02-27T17:29:53.566Z,22.27
2019-02-27T17:32:20.901Z,28.43
2019-02-27T17:34:49.382Z,19.37
2019-02-27T17:37:17.896Z,32.97
2019-02-27T17:39:45.671Z,18.13
2019-02-27T17:42:18.489Z,15.33
2019-02-27T17:44:46.957Z,13.50
2019-02-27T17:47:15.267Z,20.53
2019-02-27T17:49:43.232Z,13.20
2019-02-27T17:52:11.491Z,14.70
2019-02-27T17:54:42.414Z,14.57
2019-02-27T17:57:10.108Z,18.30
2019-02-27T17:59:39.117Z,15.80
2019-02-27T18:02:08.443Z,13.10
2019-02-27T18:04:36.632Z,17.20
2019-02-27T18:07:06.240Z,19.83
2019-02-27T18:09:40.401Z,14.37
2019-02-27T18:12:09.830Z,19.57
2019-02-27T18:14:43.846Z,21.33
2019-02-27T18:17:10.720Z,19.57
2019-02-27T18:19:38.981Z,21.37
2019-02-27T18:22:06.808Z,18.67
2019-02-27T18:24:34.733Z,18.20
2019-02-27T18:27:05.475Z,21.57
2019-02-27T18:29:34.197Z,22.83
2019-02-27T18:32:06.372Z,18.63
2019-02-27T18:34:33.652Z,18.73
2019-02-27T18:37:01.977Z,15.90
2019-02-27T18:39:30.436Z,16.10
2019-02-27T18:41:58.132Z,21.80
2019-02-27T18:44:27.283Z,19.07
2019-02-27T18:46:56.218Z,16.33
2019-02-27T18:49:26.309Z,18.13
2019-02-27T18:51:55.780Z,12.73
2019-02-27T18:54:25.233Z,15.67
2019-02-27T18:56:52.822Z,17.30
2019-02-27T18:59:20.620Z,15.80
2019-02-27T19:01:48.766Z,16.63
2019-02-27T19:04:16.344Z,18.60
2019-02-27T19:06:46.152Z,19.13
2019-02-27T19:09:14.850Z,23.13
2019-02-27T19:11:43.764Z,18.13
2019-02-27T19:14:11.487Z,22.70
2019-02-27T19:16:39.676Z,22.30
2019-02-27T19:19:07.050Z,21.10
2019-02-27T19:21:36.127Z,17.97
2019-02-27T19:24:04.327Z,25.50
2019-02-27T19:26:32.455Z,20.43
2019-02-27T19:29:00.533Z,18.70
2019-02-27T19:31:28.344Z,18.93
2019-02-27T19:33:56.953Z,20.83
2019-02-27T19:36:34.607Z,23.63
2019-02-27T19:39:04.579Z,18.20
2019-02-27T19:41:38.716Z,19.53
2019-02-27T19:44:03.206Z,20.37
2019-02-27T19:46:31.271Z,18.30
2019-02-27T19:49:00.837Z,18.30
2019-02-27T19:51:28.995Z,18.40
2019-02-27T19:53:56.733Z,20.37
2019-02-27T19:56:25.983Z,21.97
2019-02-27T19:58:53.837Z,22.00
2019-02-27T20:01:22.389Z,21.47
2019-02-27T20:03:50.762Z,20.23
2019-02-27T20:06:19.222Z,19.47
2019-02-27T20:08:47.445Z,20.83
2019-02-27T20:11:15.190Z,18.30
2019-02-27T20:13:42.779Z,16.70
2019-02-27T20:16:11.471Z,20.43
2019-02-27T20:18:40.558Z,21.27
2019-02-27T20:21:10.506Z,32.60
2019-02-27T20:23:40.712Z,30.23
2019-02-27T20:26:14.121Z,20.90
2019-02-27T20:28:38.973Z,36.37
2019-02-27T20:31:06.941Z,18.37
2019-02-27T20:33:37.318Z,26.00
2019-02-27T20:36:04.032Z,24.17
2019-02-27T20:38:32.182Z,23.20
2019-02-27T20:41:00.155Z,24.57
2019-02-27T20:43:29.422Z,22.73
2019-02-27T20:45:58.354Z,24.27
2019-02-27T20:48:26.959Z,23.03
2019-02-27T20:50:56.032Z,15.43
2019-02-27T20:53:43.402Z,21.63
2019-02-27T20:56:12.884Z,19.47
2019-02-27T20:58:41.939Z,18.83
2019-02-27T21:01:13.949Z,17.23
2019-02-27T21:03:42.031Z,15.10
2019-02-27T21:06:12.795Z,16.87
2019-02-27T21:08:41.646Z,24.27
2019-02-27T21:11:10.630Z,11.40
2019-02-27T21:13:39.029Z,12.03
2019-02-27T21:16:09.325Z,16.93
2019-02-27T21:18:37.517Z,15.20
2019-02-27T21:21:05.397Z,11.97
2019-02-27T21:23:36.419Z,21.87
2019-02-27T21:26:05.884Z,11.43
2019-02-27T21:28:34.207Z,13.17
2019-02-27T21:31:07.973Z,41.07
2019-02-27T21:33:36.404Z,22.27
2019-02-27T21:36:04.574Z,23.80
2019-02-27T21:38:33.029Z,17.03
2019-02-27T21:41:00.965Z,14.87
2019-02-27T21:43:30.351Z,14.73
2019-02-27T21:45:58.834Z,21.60
2019-02-27T21:48:26.905Z,15.93
2019-02-27T21:50:57.909Z,14.53
2019-02-27T21:53:29.719Z,12.00
2019-02-27T21:55:58.632Z,11.53
2019-02-27T21:58:31.966Z,12.50
2019-02-27T22:00:57.349Z,11.63
2019-02-27T22:03:25.717Z,10.23
2019-02-27T22:05:54.121Z,12.07
2019-02-27T22:08:25.160Z,10.67
2019-02-27T22:10:56.279Z,7.23
2019-02-27T22:13:29.496Z,10.73
2019-02-27T22:15:56.663Z,7.90
2019-02-27T22:18:25.663Z,8.00
2019-02-27T22:20:59.519Z,9.40
2019-02-27T22:23:25.428Z,9.20
2019-02-27T22:25:54.304Z,11.73
2019-02-27T22:28:25.818Z,9.00
2019-02-27T22:30:54.188Z,10.20
2019-02-27T22:33:24.271Z,12.97
2019-02-27T22:35:52.889Z,9.30
2019-02-27T22:38:25.678Z,13.30
2019-02-27T22:40:51.062Z,10.57
2019-02-27T22:43:21.546Z,12.50
2019-02-27T22:45:49.322Z,9.07
2019-02-27T22:48:17.351Z,9.50
2019-02-27T22:50:45.727Z,11.93
2019-02-27T22:53:13.793Z,10.87
2019-02-27T22:55:43.172Z,9.77
2019-02-27T22:58:11.361Z,11.13
2019-02-27T23:01:00.973Z,13.13
2019-02-27T23:03:30.437Z,11.57
2019-02-27T23:06:00.080Z,7.83
2019-02-27T23:08:28.222Z,10.57
2019-02-27T23:10:57.194Z,10.13
2019-02-27T23:13:47.508Z,10.67
2019-02-27T23:16:14.863Z,8.73
2019-02-27T23:18:42.942Z,10.13
2019-02-27T23:21:11.412Z,9.70
2019-02-27T23:23:39.101Z,7.70
2019-02-27T23:26:07.148Z,10.77
2019-02-27T23:28:35.518Z,7.10
2019-02-27T23:31:04.020Z,8.13
2019-02-27T23:33:35.826Z,9.90
2019-02-27T23:36:02.380Z,9.67
2019-02-27T23:38:34.663Z,7.80
2019-02-27T23:41:02.723Z,9.13
2019-02-27T23:43:34.013Z,7.80
2019-02-27T23:46:00.971Z,7.63
2019-02-27T23:48:29.831Z,8.40
2019-02-27T23:50:58.115Z,11.37
2019-02-27T23:53:27.096Z,8.97
2019-02-27T23:55:56.290Z,10.93
2019-02-27T23:58:23.978Z,9.23
